LFPO/ORY METAR and TAF weather

Enter ICAO airport designator
Station Type Date Time Source
LFPO METAR 2022/08/12 14:30 UTC NOAA

LFPO 121430Z 12009KT 070V160 CAVOK 33/07 Q1014


Station Type Date Time Source
LFPO Decoded METAR 2022/08/12 14:30 UTC NOAA

Paris-Orly, France (LFPO) 48-44N 002-24E 96M
Aug 12, 2022 - 10:30 AM EDT / 2022.08.12 1430 UTC
Wind: from the ESE (120 degrees) at 10 MPH (9 KT) (direction variable):0
Visibility: greater than 7 mile(s):0
Temperature: 91 F (33 C)
Dew Point: 44 F (7 C)
Relative Humidity: 19%
Pressure (altimeter): 29.94 in. Hg (1014 hPa)
ob: LFPO 121430Z 12009KT 070V160 CAVOK 33/07 Q1014
cycle: 14

Station Type Date Time Source
LFPO TAF 2022/08/12 12:22 UTC NOAA

TAF LFPO 121100Z 1212/1318 09010KT CAVOK
TEMPO 1212/1217 09012G22KT

Example: see airport list